sensor_id;sensor_type;location;lat;lon;timestamp;pressure;altitude;pressure_sealevel;temperature;humidity
78890;BME280;68279;48.964;14.502;2024-02-28T00:00:48;96834.00;;;3.26;100.00
78890;BME280;68279;48.964;14.502;2024-02-28T00:03:13;96835.16;;;3.30;100.00
78890;BME280;68279;48.964;14.502;2024-02-28T00:05:39;96842.75;;;3.43;100.00
78890;BME280;68279;48.964;14.502;2024-02-28T00:08:05;96839.97;;;3.50;100.00
78890;BME280;68279;48.964;14.502;2024-02-28T00:10:32;96833.34;;;3.64;100.00
78890;BME280;68279;48.964;14.502;2024-02-28T00:12:58;96845.81;;;3.68;100.00
78890;BME280;68279;48.964;14.502;2024-02-28T00:15:24;96842.53;;;3.78;100.00
78890;BME280;68279;48.964;14.502;2024-02-28T00:17:52;96853.06;;;3.90;100.00
78890;BME280;68279;48.964;14.502;2024-02-28T00:20:17;96849.81;;;3.88;100.00
78890;BME280;68279;48.964;14.502;2024-02-28T00:22:43;96851.19;;;3.90;100.00
78890;BME280;68279;48.964;14.502;2024-02-28T00:25:09;96856.81;;;3.94;100.00
78890;BME280;68279;48.964;14.502;2024-02-28T00:27:36;96858.41;;;3.95;100.00
78890;BME280;68279;48.964;14.502;2024-02-28T00:30:03;96852.41;;;4.00;100.00
78890;BME280;68279;48.964;14.502;2024-02-28T00:32:32;96856.00;;;3.93;100.00
78890;BME280;68279;48.964;14.502;2024-02-28T00:34:58;96855.34;;;3.86;100.00
78890;BME280;68279;48.964;14.502;2024-02-28T00:37:23;96850.22;;;3.96;100.00
78890;BME280;68279;48.964;14.502;2024-02-28T00:39:49;96856.41;;;4.02;100.00
78890;BME280;68279;48.964;14.502;2024-02-28T00:42:15;96854.31;;;4.04;100.00
78890;BME280;68279;48.964;14.502;2024-02-28T00:44:40;96856.91;;;3.99;100.00
78890;BME280;68279;48.964;14.502;2024-02-28T00:47:08;96852.00;;;3.91;100.00
78890;BME280;68279;48.964;14.502;2024-02-28T00:49:34;96854.72;;;3.96;100.00
78890;BME280;68279;48.964;14.502;2024-02-28T00:52:00;96860.16;;;4.06;100.00
78890;BME280;68279;48.964;14.502;2024-02-28T00:54:25;96864.47;;;4.12;100.00
78890;BME280;68279;48.964;14.502;2024-02-28T00:56:51;96865.50;;;4.28;100.00
78890;BME280;68279;48.964;14.502;2024-02-28T00:59:16;96860.22;;;4.28;100.00
78890;BME280;68279;48.964;14.502;2024-02-28T01:01:42;96866.69;;;4.37;100.00
78890;BME280;68279;48.964;14.502;2024-02-28T01:04:08;96872.28;;;4.41;100.00
78890;BME280;68279;48.964;14.502;2024-02-28T01:06:33;96886.81;;;4.38;100.00
78890;BME280;68279;48.964;14.502;2024-02-28T01:08:59;96883.91;;;4.40;100.00
78890;BME280;68279;48.964;14.502;2024-02-28T01:11:25;96882.56;;;4.37;100.00
78890;BME280;68279;48.964;14.502;2024-02-28T01:13:51;96875.00;;;4.46;100.00
78890;BME280;68279;48.964;14.502;2024-02-28T01:16:16;96883.75;;;4.46;100.00
78890;BME280;68279;48.964;14.502;2024-02-28T01:18:42;96885.84;;;4.44;100.00
78890;BME280;68279;48.964;14.502;2024-02-28T01:21:08;96880.94;;;4.53;100.00
78890;BME280;68279;48.964;14.502;2024-02-28T01:23:33;96885.69;;;4.51;100.00
78890;BME280;68279;48.964;14.502;2024-02-28T01:25:59;96896.03;;;4.52;100.00
78890;BME280;68279;48.964;14.502;2024-02-28T01:28:24;96892.81;;;4.50;100.00
78890;BME280;68279;48.964;14.502;2024-02-28T01:30:51;96885.47;;;4.58;100.00
78890;BME280;68279;48.964;14.502;2024-02-28T01:33:16;96885.19;;;4.54;100.00
78890;BME280;68279;48.964;14.502;2024-02-28T01:35:42;96881.78;;;4.59;100.00
78890;BME280;68279;48.964;14.502;2024-02-28T01:38:07;96875.38;;;4.54;100.00
78890;BME280;68279;48.964;14.502;2024-02-28T01:40:33;96876.75;;;4.57;100.00
78890;BME280;68279;48.964;14.502;2024-02-28T01:43:08;96875.94;;;4.57;100.00
78890;BME280;68279;48.964;14.502;2024-02-28T01:45:34;96869.91;;;4.61;100.00
78890;BME280;68279;48.964;14.502;2024-02-28T01:47:59;96863.25;;;4.59;100.00
78890;BME280;68279;48.964;14.502;2024-02-28T01:50:26;96863.03;;;4.60;100.00
78890;BME280;68279;48.964;14.502;2024-02-28T01:52:51;96867.28;;;4.61;100.00
78890;BME280;68279;48.964;14.502;2024-02-28T01:55:17;96879.75;;;4.66;100.00
78890;BME280;68279;48.964;14.502;2024-02-28T01:57:42;96870.97;;;4.60;100.00
78890;BME280;68279;48.964;14.502;2024-02-28T02:00:09;96882.66;;;4.64;100.00
78890;BME280;68279;48.964;14.502;2024-02-28T02:02:36;96875.69;;;4.58;100.00
78890;BME280;68279;48.964;14.502;2024-02-28T02:05:02;96880.53;;;4.61;100.00
78890;BME280;68279;48.964;14.502;2024-02-28T02:07:28;96888.13;;;4.58;100.00
78890;BME280;68279;48.964;14.502;2024-02-28T02:09:54;96892.75;;;4.67;100.00
78890;BME280;68279;48.964;14.502;2024-02-28T02:12:19;96894.06;;;4.65;100.00
78890;BME280;68279;48.964;14.502;2024-02-28T02:14:48;96898.84;;;4.68;100.00
78890;BME280;68279;48.964;14.502;2024-02-28T02:17:14;96903.34;;;4.67;100.00
78890;BME280;68279;48.964;14.502;2024-02-28T02:19:40;96905.19;;;4.67;100.00
78890;BME280;68279;48.964;14.502;2024-02-28T02:22:08;96897.75;;;4.64;100.00
78890;BME280;68279;48.964;14.502;2024-02-28T02:24:33;96900.94;;;4.66;100.00
78890;BME280;68279;48.964;14.502;2024-02-28T02:27:00;96895.09;;;4.64;100.00
78890;BME280;68279;48.964;14.502;2024-02-28T02:29:26;96898.81;;;4.63;100.00
78890;BME280;68279;48.964;14.502;2024-02-28T02:31:53;96903.06;;;4.64;100.00
78890;BME280;68279;48.964;14.502;2024-02-28T02:34:20;96898.47;;;4.59;100.00
78890;BME280;68279;48.964;14.502;2024-02-28T02:36:45;96904.47;;;4.71;100.00
78890;BME280;68279;48.964;14.502;2024-02-28T02:39:11;96913.22;;;4.72;100.00
78890;BME280;68279;48.964;14.502;2024-02-28T02:41:37;96908.44;;;4.69;100.00
78890;BME280;68279;48.964;14.502;2024-02-28T02:44:02;96910.03;;;4.70;100.00
78890;BME280;68279;48.964;14.502;2024-02-28T02:46:28;96906.59;;;4.69;100.00
78890;BME280;68279;48.964;14.502;2024-02-28T02:48:53;96917.97;;;4.70;100.00
78890;BME280;68279;48.964;14.502;2024-02-28T02:51:20;96924.53;;;4.67;100.00
78890;BME280;68279;48.964;14.502;2024-02-28T02:53:45;96928.81;;;4.68;100.00
78890;BME280;68279;48.964;14.502;2024-02-28T02:56:11;96926.72;;;4.70;100.00
78890;BME280;68279;48.964;14.502;2024-02-28T02:58:36;96930.97;;;4.71;100.00
78890;BME280;68279;48.964;14.502;2024-02-28T03:01:02;96925.19;;;4.74;100.00
78890;BME280;68279;48.964;14.502;2024-02-28T03:03:28;96928.63;;;4.75;100.00
78890;BME280;68279;48.964;14.502;2024-02-28T03:05:53;96921.97;;;4.72;100.00
78890;BME280;68279;48.964;14.502;2024-02-28T03:08:19;96924.38;;;4.74;100.00
78890;BME280;68279;48.964;14.502;2024-02-28T03:10:45;96930.47;;;4.74;100.00
78890;BME280;68279;48.964;14.502;2024-02-28T03:13:10;96933.38;;;4.73;100.00
78890;BME280;68279;48.964;14.502;2024-02-28T03:15:36;96930.72;;;4.73;100.00
78890;BME280;68279;48.964;14.502;2024-02-28T03:18:01;96940.53;;;4.72;100.00
78890;BME280;68279;48.964;14.502;2024-02-28T03:20:27;96944.53;;;4.75;100.00
78890;BME280;68279;48.964;14.502;2024-02-28T03:22:53;96944.53;;;4.75;100.00
78890;BME280;68279;48.964;14.502;2024-02-28T03:25:18;96943.47;;;4.76;100.00
78890;BME280;68279;48.964;14.502;2024-02-28T03:27:44;96946.38;;;4.74;100.00
78890;BME280;68279;48.964;14.502;2024-02-28T03:30:12;96950.16;;;4.78;100.00
78890;BME280;68279;48.964;14.502;2024-02-28T03:32:39;96955.91;;;4.75;100.00
78890;BME280;68279;48.964;14.502;2024-02-28T03:35:05;96960.41;;;4.75;100.00
78890;BME280;68279;48.964;14.502;2024-02-28T03:37:33;96971.56;;;4.77;100.00
78890;BME280;68279;48.964;14.502;2024-02-28T03:40:00;96964.91;;;4.74;100.00
78890;BME280;68279;48.964;14.502;2024-02-28T03:42:25;96978.41;;;4.73;100.00
78890;BME280;68279;48.964;14.502;2024-02-28T03:44:51;96980.81;;;4.74;100.00
78890;BME280;68279;48.964;14.502;2024-02-28T03:47:17;96979.84;;;4.80;100.00
78890;BME280;68279;48.964;14.502;2024-02-28T03:49:42;96982.41;;;4.75;100.00
78890;BME280;68279;48.964;14.502;2024-02-28T03:52:08;96985.63;;;4.77;100.00
78890;BME280;68279;48.964;14.502;2024-02-28T03:54:33;96990.44;;;4.80;100.00
78890;BME280;68279;48.964;14.502;2024-02-28T03:57:00;96995.00;;;4.85;100.00
78890;BME280;68279;48.964;14.502;2024-02-28T03:59:25;96992.13;;;4.87;100.00
78890;BME280;68279;48.964;14.502;2024-02-28T04:01:51;96992.03;;;4.81;100.00
78890;BME280;68279;48.964;14.502;2024-02-28T04:04:17;96991.25;;;4.81;100.00
78890;BME280;68279;48.964;14.502;2024-02-28T04:06:43;96994.59;;;4.76;100.00
78890;BME280;68279;48.964;14.502;2024-02-28T04:09:09;96993.34;;;4.79;100.00
78890;BME280;68279;48.964;14.502;2024-02-28T04:11:36;96998.69;;;4.84;100.00
78890;BME280;68279;48.964;14.502;2024-02-28T04:14:02;97007.38;;;4.79;100.00
78890;BME280;68279;48.964;14.502;2024-02-28T04:16:28;97006.00;;;4.77;100.00
78890;BME280;68279;48.964;14.502;2024-02-28T04:18:54;97003.94;;;4.79;100.00
78890;BME280;68279;48.964;14.502;2024-02-28T04:21:19;97006.59;;;4.79;100.00
78890;BME280;68279;48.964;14.502;2024-02-28T04:23:45;97010.03;;;4.79;100.00
78890;BME280;68279;48.964;14.502;2024-02-28T04:26:11;97010.28;;;4.78;100.00
78890;BME280;68279;48.964;14.502;2024-02-28T04:28:36;97016.06;;;4.75;100.00
78890;BME280;68279;48.964;14.502;2024-02-28T04:31:02;97018.69;;;4.75;100.00
78890;BME280;68279;48.964;14.502;2024-02-28T04:33:27;97018.69;;;4.75;100.00
78890;BME280;68279;48.964;14.502;2024-02-28T04:35:53;97022.41;;;4.74;100.00
78890;BME280;68279;48.964;14.502;2024-02-28T04:38:19;97030.91;;;4.76;100.00
78890;BME280;68279;48.964;14.502;2024-02-28T04:40:44;97037.34;;;4.80;100.00
78890;BME280;68279;48.964;14.502;2024-02-28T04:43:10;97030.91;;;4.76;100.00
78890;BME280;68279;48.964;14.502;2024-02-28T04:45:35;97028.50;;;4.74;100.00
78890;BME280;68279;48.964;14.502;2024-02-28T04:48:01;97021.44;;;4.80;100.00
78890;BME280;68279;48.964;14.502;2024-02-28T04:50:27;97023.44;;;4.73;100.00
78890;BME280;68279;48.964;14.502;2024-02-28T04:52:52;97020.25;;;4.71;100.00
78890;BME280;68279;48.964;14.502;2024-02-28T04:55:18;97018.31;;;4.66;100.00
78890;BME280;68279;48.964;14.502;2024-02-28T04:57:44;97024.41;;;4.67;100.00
78890;BME280;68279;48.964;14.502;2024-02-28T05:00:09;97016.94;;;4.64;100.00
78890;BME280;68279;48.964;14.502;2024-02-28T05:02:35;97021.75;;;4.67;100.00
78890;BME280;68279;48.964;14.502;2024-02-28T05:05:01;97020.25;;;4.71;100.00
78890;BME280;68279;48.964;14.502;2024-02-28T05:07:26;97026.09;;;4.73;100.00
78890;BME280;68279;48.964;14.502;2024-02-28T05:09:52;97023.84;;;4.65;100.00
78890;BME280;68279;48.964;14.502;2024-02-28T05:12:18;97029.41;;;4.63;100.00
78890;BME280;68279;48.964;14.502;2024-02-28T05:14:43;97020.66;;;4.63;100.00
78890;BME280;68279;48.964;14.502;2024-02-28T05:17:09;97029.16;;;4.65;100.00
78890;BME280;68279;48.964;14.502;2024-02-28T05:19:34;97025.44;;;4.66;100.00
78890;BME280;68279;48.964;14.502;2024-02-28T05:22:00;97024.66;;;4.65;100.00
78890;BME280;68279;48.964;14.502;2024-02-28T05:24:27;97027.84;;;4.67;100.00
78890;BME280;68279;48.964;14.502;2024-02-28T05:26:52;97030.28;;;4.69;100.00
78890;BME280;68279;48.964;14.502;2024-02-28T05:29:18;97030.75;;;4.66;100.00
78890;BME280;68279;48.964;14.502;2024-02-28T05:31:43;97034.28;;;4.71;100.00
78890;BME280;68279;48.964;14.502;2024-02-28T05:34:09;97031.31;;;4.68;100.00
78890;BME280;68279;48.964;14.502;2024-02-28T05:36:35;97028.25;;;4.59;100.00
78890;BME280;68279;48.964;14.502;2024-02-28T05:39:01;97035.41;;;4.59;100.00
78890;BME280;68279;48.964;14.502;2024-02-28T05:41:27;97032.75;;;4.59;100.00
78890;BME280;68279;48.964;14.502;2024-02-28T05:43:53;97036.00;;;4.61;100.00
78890;BME280;68279;48.964;14.502;2024-02-28T05:46:19;97038.53;;;4.55;100.00
78890;BME280;68279;48.964;14.502;2024-02-28T05:48:47;97038.00;;;4.53;100.00
78890;BME280;68279;48.964;14.502;2024-02-28T05:51:13;97037.19;;;4.53;100.00
78890;BME280;68279;48.964;14.502;2024-02-28T05:53:40;97040.09;;;4.51;100.00
78890;BME280;68279;48.964;14.502;2024-02-28T05:56:06;97046.88;;;4.47;100.00
78890;BME280;68279;48.964;14.502;2024-02-28T05:58:46;97055.97;;;4.51;100.00
78890;BME280;68279;48.964;14.502;2024-02-28T06:01:15;97064.72;;;4.52;100.00
78890;BME280;68279;48.964;14.502;2024-02-28T06:03:41;97068.41;;;4.51;100.00
78890;BME280;68279;48.964;14.502;2024-02-28T06:06:07;97072.41;;;4.53;100.00
78890;BME280;68279;48.964;14.502;2024-02-28T06:08:38;97072.41;;;4.53;100.00
78890;BME280;68279;48.964;14.502;2024-02-28T06:11:05;97072.66;;;4.52;100.00
78890;BME280;68279;48.964;14.502;2024-02-28T06:13:32;97076.75;;;4.60;100.00
78890;BME280;68279;48.964;14.502;2024-02-28T06:15:58;97081.81;;;4.61;100.00
78890;BME280;68279;48.964;14.502;2024-02-28T06:18:25;97093.91;;;4.57;100.00
78890;BME280;68279;48.964;14.502;2024-02-28T06:20:54;97093.38;;;4.55;100.00
78890;BME280;68279;48.964;14.502;2024-02-28T06:23:21;97102.41;;;4.59;100.00
78890;BME280;68279;48.964;14.502;2024-02-28T06:25:47;97103.81;;;4.62;100.00
78890;BME280;68279;48.964;14.502;2024-02-28T06:28:12;97110.84;;;4.56;100.00
78890;BME280;68279;48.964;14.502;2024-02-28T06:30:38;97114.06;;;4.58;100.00
78890;BME280;68279;48.964;14.502;2024-02-28T06:33:04;97130.19;;;4.57;100.00
78890;BME280;68279;48.964;14.502;2024-02-28T06:35:30;97130.75;;;4.59;100.00
78890;BME280;68279;48.964;14.502;2024-02-28T06:37:56;97121.63;;;4.66;100.00
78890;BME280;68279;48.964;14.502;2024-02-28T06:40:21;97126.09;;;4.66;100.00
78890;BME280;68279;48.964;14.502;2024-02-28T06:42:47;97129.41;;;4.73;100.00
78890;BME280;68279;48.964;14.502;2024-02-28T06:45:13;97135.81;;;4.77;100.00
78890;BME280;68279;48.964;14.502;2024-02-28T06:47:40;97146.66;;;4.75;100.00
78890;BME280;68279;48.964;14.502;2024-02-28T06:50:07;97140.31;;;4.76;100.00
78890;BME280;68279;48.964;14.502;2024-02-28T06:52:34;97146.91;;;4.74;100.00
78890;BME280;68279;48.964;14.502;2024-02-28T06:55:00;97146.75;;;4.80;100.00
78890;BME280;68279;48.964;14.502;2024-02-28T06:57:29;97154.72;;;4.80;100.00
78890;BME280;68279;48.964;14.502;2024-02-28T06:59:54;97158.88;;;4.76;100.00
78890;BME280;68279;48.964;14.502;2024-02-28T07:02:20;97161.50;;;4.76;100.00
78890;BME280;68279;48.964;14.502;2024-02-28T07:04:46;97153.66;;;4.81;100.00
78890;BME280;68279;48.964;14.502;2024-02-28T07:07:11;97155.81;;;4.84;100.00
78890;BME280;68279;48.964;14.502;2024-02-28T07:09:37;97155.03;;;4.84;100.00
78890;BME280;68279;48.964;14.502;2024-02-28T07:12:03;97156.31;;;4.81;100.00
78890;BME280;68279;48.964;14.502;2024-02-28T07:14:29;97160.56;;;4.82;100.00
78890;BME280;68279;48.964;14.502;2024-02-28T07:16:55;97167.81;;;4.87;100.00
78890;BME280;68279;48.964;14.502;2024-02-28T07:19:20;97172.47;;;4.80;100.00
78890;BME280;68279;48.964;14.502;2024-02-28T07:21:47;97165.22;;;4.75;100.00
78890;BME280;68279;48.964;14.502;2024-02-28T07:24:12;97167.00;;;4.70;100.00
78890;BME280;68279;48.964;14.502;2024-02-28T07:26:39;97164.16;;;4.76;100.00
78890;BME280;68279;48.964;14.502;2024-02-28T07:29:05;97170.75;;;4.74;100.00
78890;BME280;68279;48.964;14.502;2024-02-28T07:31:31;97174.69;;;4.71;100.00
78890;BME280;68279;48.964;14.502;2024-02-28T07:33:57;97174.44;;;4.73;100.00
78890;BME280;68279;48.964;14.502;2024-02-28T07:36:22;97172.53;;;4.68;100.00
78890;BME280;68279;48.964;14.502;2024-02-28T07:38:48;97179.75;;;4.73;100.00
78890;BME280;68279;48.964;14.502;2024-02-28T07:41:13;97181.09;;;4.75;100.00
78890;BME280;68279;48.964;14.502;2024-02-28T07:43:43;97181.34;;;4.74;100.00
78890;BME280;68279;48.964;14.502;2024-02-28T07:46:09;97183.31;;;4.78;100.00
78890;BME280;68279;48.964;14.502;2024-02-28T07:48:36;97184.41;;;4.82;100.00
78890;BME280;68279;48.964;14.502;2024-02-28T07:51:06;97191.31;;;4.83;100.00
78890;BME280;68279;48.964;14.502;2024-02-28T07:53:31;97199.63;;;4.87;100.00
78890;BME280;68279;48.964;14.502;2024-02-28T07:55:57;97191.97;;;4.91;100.00
78890;BME280;68279;48.964;14.502;2024-02-28T07:58:23;97196.97;;;4.87;100.00
78890;BME280;68279;48.964;14.502;2024-02-28T08:00:49;97198.41;;;4.95;100.00
78890;BME280;68279;48.964;14.502;2024-02-28T08:03:15;97189.88;;;4.93;100.00
78890;BME280;68279;48.964;14.502;2024-02-28T08:05:41;97196.78;;;4.94;100.00
78890;BME280;68279;48.964;14.502;2024-02-28T08:08:09;97199.53;;;4.99;100.00
78890;BME280;68279;48.964;14.502;2024-02-28T08:10:35;97194.63;;;5.07;100.00
78890;BME280;68279;48.964;14.502;2024-02-28T08:13:01;97201.78;;;5.07;100.00
78890;BME280;68279;48.964;14.502;2024-02-28T08:15:27;97209.59;;;5.14;100.00
78890;BME280;68279;48.964;14.502;2024-02-28T08:17:52;97216.56;;;5.20;100.00
78890;BME280;68279;48.964;14.502;2024-02-28T08:20:19;97217.63;;;5.19;100.00
78890;BME280;68279;48.964;14.502;2024-02-28T08:22:45;97213.09;;;5.19;100.00
78890;BME280;68279;48.964;14.502;2024-02-28T08:25:11;97212.97;;;5.26;100.00
78890;BME280;68279;48.964;14.502;2024-02-28T08:27:38;97216.91;;;5.23;100.00
78890;BME280;68279;48.964;14.502;2024-02-28T08:30:05;97215.22;;;5.17;100.00
78890;BME280;68279;48.964;14.502;2024-02-28T08:32:33;97214.16;;;5.18;100.00
78890;BME280;68279;48.964;14.502;2024-02-28T08:35:00;97221.41;;;5.23;100.00
78890;BME280;68279;48.964;14.502;2024-02-28T08:37:25;97213.84;;;5.31;100.00
78890;BME280;68279;48.964;14.502;2024-02-28T08:39:54;97214.16;;;5.35;100.00
78890;BME280;68279;48.964;14.502;2024-02-28T08:42:25;97217.47;;;5.42;100.00
78890;BME280;68279;48.964;14.502;2024-02-28T08:44:51;97218.50;;;5.41;100.00
78890;BME280;68279;48.964;14.502;2024-02-28T08:47:16;97226.78;;;5.45;100.00
78890;BME280;68279;48.964;14.502;2024-02-28T08:49:42;97223.41;;;5.49;100.00
78890;BME280;68279;48.964;14.502;2024-02-28T08:52:07;97232.63;;;5.47;100.00
78890;BME280;68279;48.964;14.502;2024-02-28T08:54:33;97239.78;;;5.46;100.00
78890;BME280;68279;48.964;14.502;2024-02-28T08:56:59;97234.88;;;5.55;100.00
78890;BME280;68279;48.964;14.502;2024-02-28T08:59:24;97241.38;;;5.64;100.00
78890;BME280;68279;48.964;14.502;2024-02-28T09:01:50;97241.56;;;5.57;100.00
78890;BME280;68279;48.964;14.502;2024-02-28T09:04:16;97241.56;;;5.57;100.00
78890;BME280;68279;48.964;14.502;2024-02-28T09:06:42;97242.44;;;5.63;100.00
78890;BME280;68279;48.964;14.502;2024-02-28T09:09:07;97255.22;;;5.66;100.00
78890;BME280;68279;48.964;14.502;2024-02-28T09:11:33;97251.84;;;5.71;100.00
78890;BME280;68279;48.964;14.502;2024-02-28T09:13:59;97249.69;;;5.67;100.00
78890;BME280;68279;48.964;14.502;2024-02-28T09:16:24;97253.59;;;5.65;100.00
78890;BME280;68279;48.964;14.502;2024-02-28T09:18:50;97258.69;;;5.66;100.00
78890;BME280;68279;48.964;14.502;2024-02-28T09:21:16;97264.38;;;5.75;100.00
78890;BME280;68279;48.964;14.502;2024-02-28T09:23:41;97270.50;;;5.76;100.00
78890;BME280;68279;48.964;14.502;2024-02-28T09:26:07;97270.88;;;5.84;100.00
78890;BME280;68279;48.964;14.502;2024-02-28T09:28:33;97274.75;;;5.93;100.00
78890;BME280;68279;48.964;14.502;2024-02-28T09:30:59;97271.31;;;5.93;100.00
78890;BME280;68279;48.964;14.502;2024-02-28T09:33:24;97272.09;;;5.93;100.00
78890;BME280;68279;48.964;14.502;2024-02-28T09:35:50;97278.03;;;6.01;100.00
78890;BME280;68279;48.964;14.502;2024-02-28T09:38:16;97279.50;;;5.91;100.00
78890;BME280;68279;48.964;14.502;2024-02-28T09:40:45;97277.25;;;5.83;100.00
78890;BME280;68279;48.964;14.502;2024-02-28T09:43:15;97284.09;;;5.96;100.00
78890;BME280;68279;48.964;14.502;2024-02-28T09:45:44;97284.72;;;5.86;100.00
78890;BME280;68279;48.964;14.502;2024-02-28T09:48:10;97284.56;;;5.93;100.00
78890;BME280;68279;48.964;14.502;2024-02-28T09:50:36;97293.94;;;6.01;100.00
78890;BME280;68279;48.964;14.502;2024-02-28T09:53:04;97290.44;;;5.95;100.00
78890;BME280;68279;48.964;14.502;2024-02-28T09:55:29;97287.22;;;5.93;100.00
78890;BME280;68279;48.964;14.502;2024-02-28T09:57:56;97296.56;;;5.95;100.00
78890;BME280;68279;48.964;14.502;2024-02-28T10:00:22;97294.63;;;5.91;100.00
78890;BME280;68279;48.964;14.502;2024-02-28T10:02:49;97297.50;;;5.89;100.00
78890;BME280;68279;48.964;14.502;2024-02-28T10:05:16;97297.91;;;5.98;100.00
78890;BME280;68279;48.964;14.502;2024-02-28T10:07:46;97299.47;;;5.94;100.00
78890;BME280;68279;48.964;14.502;2024-02-28T10:10:12;97302.75;;;6.01;100.00
78890;BME280;68279;48.964;14.502;2024-02-28T10:12:41;97308.25;;;6.16;100.00
78890;BME280;68279;48.964;14.502;2024-02-28T10:15:09;97316.41;;;6.10;100.00
78890;BME280;68279;48.964;14.502;2024-02-28T10:17:35;97316.25;;;6.00;100.00
78890;BME280;68279;48.964;14.502;2024-02-28T10:20:01;97327.66;;;6.17;100.00
78890;BME280;68279;48.964;14.502;2024-02-28T10:22:26;97327.72;;;6.22;100.00
78890;BME280;68279;48.964;14.502;2024-02-28T10:24:58;97321.88;;;6.03;100.00
78890;BME280;68279;48.964;14.502;2024-02-28T10:27:27;97322.59;;;5.99;100.00
78890;BME280;68279;48.964;14.502;2024-02-28T10:29:52;97329.06;;;6.03;100.00
78890;BME280;68279;48.964;14.502;2024-02-28T10:32:18;97324.78;;;6.02;100.00
78890;BME280;68279;48.964;14.502;2024-02-28T10:34:44;97326.44;;;6.08;100.00
78890;BME280;68279;48.964;14.502;2024-02-28T10:37:11;97336.22;;;6.02;100.00
78890;BME280;68279;48.964;14.502;2024-02-28T10:39:38;97337.47;;;6.16;100.00
78890;BME280;68279;48.964;14.502;2024-02-28T10:42:04;97339.81;;;6.13;100.00
78890;BME280;68279;48.964;14.502;2024-02-28T10:44:30;97342.63;;;6.06;100.00
78890;BME280;68279;48.964;14.502;2024-02-28T10:46:59;97347.44;;;6.09;100.00
78890;BME280;68279;48.964;14.502;2024-02-28T10:49:25;97348.19;;;6.05;100.00
78890;BME280;68279;48.964;14.502;2024-02-28T10:51:52;97347.63;;;6.03;100.00
78890;BME280;68279;48.964;14.502;2024-02-28T10:54:21;97351.94;;;6.09;100.00
78890;BME280;68279;48.964;14.502;2024-02-28T10:56:51;97355.66;;;6.08;100.00
78890;BME280;68279;48.964;14.502;2024-02-28T10:59:19;97353.75;;;6.03;100.00
78890;BME280;68279;48.964;14.502;2024-02-28T11:01:46;97356.25;;;6.10;100.00
78890;BME280;68279;48.964;14.502;2024-02-28T11:04:14;97361.50;;;6.27;100.00
78890;BME280;68279;48.964;14.502;2024-02-28T11:06:51;97365.31;;;6.31;100.00
78890;BME280;68279;48.964;14.502;2024-02-28T11:09:21;97360.00;;;6.52;100.00
78890;BME280;68279;48.964;14.502;2024-02-28T11:11:49;97366.44;;;6.57;100.00
78890;BME280;68279;48.964;14.502;2024-02-28T11:14:16;97357.63;;;6.34;100.00
78890;BME280;68279;48.964;14.502;2024-02-28T11:16:42;97354.81;;;6.41;99.95
78890;BME280;68279;48.964;14.502;2024-02-28T11:19:20;97352.84;;;6.53;98.92
78890;BME280;68279;48.964;14.502;2024-02-28T11:21:54;97353.94;;;6.35;100.00
78890;BME280;68279;48.964;14.502;2024-02-28T11:24:24;97348.38;;;6.37;100.00
78890;BME280;68279;48.964;14.502;2024-02-28T11:26:52;97347.53;;;6.53;100.00
78890;BME280;68279;48.964;14.502;2024-02-28T11:29:22;97351.84;;;6.59;100.00
78890;BME280;68279;48.964;14.502;2024-02-28T11:31:49;97351.31;;;6.57;100.00
78890;BME280;68279;48.964;14.502;2024-02-28T11:34:15;97352.69;;;6.81;99.78
78890;BME280;68279;48.964;14.502;2024-02-28T11:36:40;97350.81;;;6.82;98.95
78890;BME280;68279;48.964;14.502;2024-02-28T11:39:06;97347.72;;;6.90;98.44
78890;BME280;68279;48.964;14.502;2024-02-28T11:41:32;97345.00;;;7.07;97.70
78890;BME280;68279;48.964;14.502;2024-02-28T11:43:58;97350.19;;;6.97;98.08
78890;BME280;68279;48.964;14.502;2024-02-28T11:46:24;97336.34;;;6.95;97.13
78890;BME280;68279;48.964;14.502;2024-02-28T11:48:50;97341.84;;;6.88;95.43
78890;BME280;68279;48.964;14.502;2024-02-28T11:51:15;97344.22;;;6.63;97.36
78890;BME280;68279;48.964;14.502;2024-02-28T11:53:41;97344.13;;;6.58;97.93
78890;BME280;68279;48.964;14.502;2024-02-28T11:56:07;97349.16;;;6.76;97.72
78890;BME280;68279;48.964;14.502;2024-02-28T11:58:33;97337.53;;;6.82;97.10
78890;BME280;68279;48.964;14.502;2024-02-28T12:00:59;97350.81;;;6.82;96.19
78890;BME280;68279;48.964;14.502;2024-02-28T12:03:25;97357.94;;;6.76;96.21
78890;BME280;68279;48.964;14.502;2024-02-28T12:05:52;97348.94;;;6.61;97.14
78890;BME280;68279;48.964;14.502;2024-02-28T12:08:19;97348.09;;;6.55;96.80
78890;BME280;68279;48.964;14.502;2024-02-28T12:10:45;97355.13;;;6.44;97.39
78890;BME280;68279;48.964;14.502;2024-02-28T12:13:11;97350.28;;;6.41;97.82
78890;BME280;68279;48.964;14.502;2024-02-28T12:15:39;97351.22;;;6.52;98.35
78890;BME280;68279;48.964;14.502;2024-02-28T12:18:09;97350.28;;;6.41;98.62
78890;BME280;68279;48.964;14.502;2024-02-28T12:20:35;97347.78;;;6.51;99.25
78890;BME280;68279;48.964;14.502;2024-02-28T12:23:03;97342.22;;;6.53;97.34
78890;BME280;68279;48.964;14.502;2024-02-28T12:25:29;97347.59;;;6.58;96.94
78890;BME280;68279;48.964;14.502;2024-02-28T12:27:54;97340.22;;;6.43;97.54
78890;BME280;68279;48.964;14.502;2024-02-28T12:30:20;97340.47;;;6.42;97.83
78890;BME280;68279;48.964;14.502;2024-02-28T12:32:46;97340.88;;;6.34;97.69
78890;BME280;68279;48.964;14.502;2024-02-28T12:35:11;97348.06;;;6.33;98.25
78890;BME280;68279;48.964;14.502;2024-02-28T12:37:37;97347.09;;;6.39;97.71
78890;BME280;68279;48.964;14.502;2024-02-28T12:40:04;97345.72;;;6.37;98.17
78890;BME280;68279;48.964;14.502;2024-02-28T12:42:31;97343.88;;;6.37;97.81
78890;BME280;68279;48.964;14.502;2024-02-28T12:44:57;97347.38;;;6.43;97.27